Time;durP1;ratioP1;P1;durP2;ratioP2;P2;SDS_P1;SDS_P2;PMS_P1;PMS_P2;Temp;Humidity;BMP_temperature;BMP_pressure;BME280_temperature;BME280_humidity;BME280_pressure;Samples;Min_cycle;Max_cycle;Signal;HPM_P1;HPM_P2
2023/12/17 00:01:21;;;;;;;5.18;3.78;;;6.10;70.40;;;;;;5037708;28;20034;-84
2023/12/17 00:03:47;;;;;;;5.22;4.00;;;6.10;70.40;;;;;;5039988;28;20022;-83
2023/12/17 00:06:13;;;;;;;5.35;4.05;;;6.00;70.40;;;;;;5036726;28;20391;-84
2023/12/17 00:08:39;;;;;;;4.80;3.80;;;6.10;70.40;;;;;;5018766;28;20040;-83
2023/12/17 00:11:05;;;;;;;4.70;3.70;;;6.00;70.40;;;;;;5036515;28;20067;-84
2023/12/17 00:13:31;;;;;;;4.68;3.65;;;6.10;70.50;;;;;;5036931;28;20061;-83
2023/12/17 00:15:57;;;;;;;5.18;3.90;;;6.10;70.50;;;;;;5036504;28;20053;-83
2023/12/17 00:18:22;;;;;;;5.35;3.90;;;6.10;70.50;;;;;;5036350;28;20024;-83
2023/12/17 00:20:48;;;;;;;4.13;3.53;;;6.10;70.50;;;;;;5019049;28;20056;-84
2023/12/17 00:23:14;;;;;;;5.15;3.78;;;6.10;70.60;;;;;;5036497;28;20032;-84
2023/12/17 00:25:40;;;;;;;6.70;4.45;;;6.10;70.50;;;;;;5036126;28;20041;-82
2023/12/17 00:28:05;;;;;;;4.53;3.70;;;6.10;70.50;;;;;;5018075;28;20029;-83
2023/12/17 00:30:31;;;;;;;5.72;4.00;;;6.10;70.50;;;;;;5019826;28;20471;-85
2023/12/17 00:32:57;;;;;;;4.85;3.75;;;6.10;70.50;;;;;;5036086;28;20025;-82
2023/12/17 00:35:22;;;;;;;5.38;3.80;;;6.10;70.50;;;;;;5018462;28;20045;-84
2023/12/17 00:37:48;;;;;;;5.13;3.92;;;6.10;70.50;;;;;;5033580;28;20042;-82
2023/12/17 00:40:14;;;;;;;4.65;3.58;;;6.10;70.40;;;;;;5036356;28;20400;-83
2023/12/17 00:42:40;;;;;;;5.95;4.00;;;6.10;70.40;;;;;;5036011;28;20100;-84
2023/12/17 00:45:06;;;;;;;4.88;3.60;;;6.10;70.40;;;;;;5035670;28;20021;-84
2023/12/17 00:47:32;;;;;;;4.68;3.85;;;6.10;70.40;;;;;;5018400;28;20294;-83
2023/12/17 00:49:57;;;;;;;4.13;3.40;;;6.10;70.50;;;;;;5043463;28;20099;-84
2023/12/17 00:52:23;;;;;;;5.28;3.97;;;6.10;70.50;;;;;;5039633;28;20052;-85
2023/12/17 00:54:49;;;;;;;6.80;3.97;;;6.10;70.50;;;;;;5027860;28;20053;-83
2023/12/17 00:57:15;;;;;;;4.93;4.00;;;6.10;70.50;;;;;;5028158;28;20040;-84
2023/12/17 00:59:41;;;;;;;5.18;4.15;;;6.10;70.60;;;;;;5022375;28;20468;-83
2023/12/17 01:02:07;;;;;;;5.13;3.92;;;6.10;70.60;;;;;;5017777;28;20089;-83
2023/12/17 01:04:33;;;;;;;4.55;3.78;;;6.10;70.70;;;;;;5024551;28;20030;-84
2023/12/17 01:06:59;;;;;;;4.78;3.88;;;6.10;70.70;;;;;;4998730;28;20054;-83
2023/12/17 01:09:25;;;;;;;5.38;4.05;;;6.10;70.70;;;;;;5017108;28;20072;-83
2023/12/17 01:11:50;;;;;;;4.82;4.00;;;6.10;70.70;;;;;;5016060;28;20114;-83
2023/12/17 01:14:16;;;;;;;7.20;4.32;;;6.10;70.70;;;;;;5016798;28;20029;-83
2023/12/17 01:16:42;;;;;;;6.05;4.03;;;6.10;70.70;;;;;;4999015;28;20125;-84
2023/12/17 01:19:08;;;;;;;5.68;4.10;;;6.10;70.80;;;;;;5015645;28;20037;-84
2023/12/17 01:21:34;;;;;;;5.68;4.20;;;6.10;70.80;;;;;;4998356;28;20030;-84
2023/12/17 01:24:00;;;;;;;5.75;3.88;;;6.10;70.80;;;;;;4997799;28;20029;-83
2023/12/17 01:26:29;;;;;;;5.75;4.28;;;6.10;70.70;;;;;;5015221;28;20030;-83
2023/12/17 01:28:57;;;;;;;5.15;3.80;;;6.10;70.80;;;;;;5015410;28;20361;-82
2023/12/17 01:31:24;;;;;;;5.20;3.70;;;6.10;70.80;;;;;;4997647;28;20033;-84
2023/12/17 01:33:49;;;;;;;5.80;3.97;;;6.10;70.80;;;;;;4998107;28;20026;-83
2023/12/17 01:36:15;;;;;;;5.00;3.60;;;6.10;70.80;;;;;;5015079;28;20041;-84
2023/12/17 01:38:41;;;;;;;5.78;4.15;;;6.10;70.80;;;;;;5015417;28;20461;-84
2023/12/17 01:41:07;;;;;;;5.65;3.95;;;6.10;70.90;;;;;;4997791;28;20128;-84
2023/12/17 01:43:33;;;;;;;5.97;4.55;;;6.10;70.80;;;;;;5019352;28;20029;-84
2023/12/17 01:45:59;;;;;;;6.05;4.00;;;6.10;70.80;;;;;;5017668;28;20038;-84
2023/12/17 01:48:26;;;;;;;5.45;3.70;;;6.10;70.80;;;;;;4997680;28;20113;-85
2023/12/17 01:50:53;;;;;;;4.78;3.38;;;6.10;70.80;;;;;;4996103;28;20369;-85
2023/12/17 01:53:19;;;;;;;4.95;3.75;;;6.20;70.80;;;;;;5012810;28;20486;-84
2023/12/17 01:55:46;;;;;;;5.00;4.00;;;6.20;70.80;;;;;;5034982;28;20041;-84
2023/12/17 01:58:14;;;;;;;5.53;4.07;;;6.20;70.80;;;;;;5016903;28;20437;-85
2023/12/17 02:00:40;;;;;;;4.28;3.80;;;6.20;70.80;;;;;;5017136;28;20021;-84
2023/12/17 02:03:06;;;;;;;5.15;4.13;;;6.20;70.90;;;;;;5036350;28;20030;-83
2023/12/17 02:05:33;;;;;;;4.45;3.67;;;6.20;70.80;;;;;;5034474;28;20467;-82
2023/12/17 02:08:00;;;;;;;5.25;3.80;;;6.20;70.80;;;;;;5034595;28;20075;-84
2023/12/17 02:10:26;;;;;;;4.80;3.65;;;6.20;70.80;;;;;;5016710;28;20034;-84
2023/12/17 02:12:52;;;;;;;4.80;3.72;;;6.20;70.80;;;;;;5018189;28;20030;-83
2023/12/17 02:15:18;;;;;;;4.43;3.60;;;6.20;70.90;;;;;;5017119;28;20079;-84
2023/12/17 02:17:44;;;;;;;5.40;3.90;;;6.20;70.80;;;;;;5016608;28;20128;-83
2023/12/17 02:20:10;;;;;;;4.72;3.70;;;6.20;70.80;;;;;;5034122;28;20029;-84
2023/12/17 02:22:38;;;;;;;4.85;3.88;;;6.20;70.90;;;;;;5016490;28;20033;-85
2023/12/17 02:25:07;;;;;;;4.63;3.80;;;6.20;70.80;;;;;;5033677;28;20490;-83
2023/12/17 02:27:33;;;;;;;5.45;4.30;;;6.20;70.80;;;;;;5034277;28;20029;-84
2023/12/17 02:29:59;;;;;;;5.30;4.00;;;6.20;70.80;;;;;;5034404;28;20025;-83
2023/12/17 02:32:25;;;;;;;4.78;3.50;;;6.20;70.80;;;;;;5016252;28;20399;-83
2023/12/17 02:34:51;;;;;;;5.40;4.00;;;6.20;70.80;;;;;;5038507;28;20061;-83
2023/12/17 02:37:17;;;;;;;5.55;4.03;;;6.20;70.80;;;;;;5023441;28;20391;-85
2023/12/17 02:39:43;;;;;;;4.82;3.90;;;6.20;70.80;;;;;;5043175;28;20029;-84
2023/12/17 02:42:09;;;;;;;5.07;3.75;;;6.20;70.90;;;;;;5039222;28;20040;-82
2023/12/17 02:44:35;;;;;;;6.13;3.85;;;6.20;70.90;;;;;;5042695;28;20033;-83
2023/12/17 02:47:01;;;;;;;6.70;4.25;;;6.20;70.80;;;;;;5037053;28;20386;-83
2023/12/17 02:49:28;;;;;;;5.60;3.60;;;6.20;70.90;;;;;;5034803;28;20566;-84
2023/12/17 02:51:55;;;;;;;6.05;3.88;;;6.20;71.00;;;;;;5016611;28;20950;-84
2023/12/17 02:54:23;;;;;;;5.20;4.03;;;6.10;71.00;;;;;;5034130;28;20428;-84
2023/12/17 02:56:49;;;;;;;5.45;3.83;;;6.10;71.00;;;;;;5016810;28;20080;-84
2023/12/17 02:59:15;;;;;;;5.63;4.05;;;6.10;71.00;;;;;;5016015;28;20114;-84
2023/12/17 03:01:42;;;;;;;5.88;4.03;;;6.10;71.00;;;;;;5014836;28;20029;-84
2023/12/17 03:04:08;;;;;;;4.97;3.72;;;6.10;71.00;;;;;;5016082;28;20040;-83
2023/12/17 03:06:35;;;;;;;5.53;4.10;;;6.10;71.00;;;;;;5016602;28;20034;-84
2023/12/17 03:09:01;;;;;;;5.55;4.07;;;6.10;71.00;;;;;;5033888;28;20368;-84
2023/12/17 03:11:27;;;;;;;5.43;4.10;;;6.10;71.10;;;;;;5033814;28;20033;-84
2023/12/17 03:13:52;;;;;;;6.43;4.65;;;6.10;71.10;;;;;;5033234;28;20479;-85
2023/12/17 03:16:18;;;;;;;6.35;4.30;;;6.10;71.20;;;;;;5033637;28;20541;-83
2023/12/17 03:18:44;;;;;;;7.63;4.32;;;6.10;71.20;;;;;;5033474;28;20378;-86
2023/12/17 03:21:11;;;;;;;5.78;4.22;;;6.10;71.20;;;;;;5033544;28;20038;-84
2023/12/17 03:23:37;;;;;;;7.15;4.20;;;6.10;71.20;;;;;;5033389;28;20030;-84
2023/12/17 03:26:03;;;;;;;5.50;4.10;;;6.10;71.20;;;;;;5033403;28;20357;-84
2023/12/17 03:28:29;;;;;;;5.93;4.03;;;6.10;71.20;;;;;;5033199;28;20112;-83
2023/12/17 03:30:55;;;;;;;6.10;4.25;;;6.10;71.10;;;;;;5031637;28;20108;-84
2023/12/17 03:33:21;;;;;;;5.45;4.00;;;6.10;71.10;;;;;;5033311;28;20488;-85
2023/12/17 03:35:47;;;;;;;7.10;4.70;;;6.10;71.10;;;;;;5033320;28;20033;-84
2023/12/17 03:38:13;;;;;;;6.13;4.57;;;6.10;71.10;;;;;;5033314;28;20056;-85
2023/12/17 03:40:39;;;;;;;5.55;4.22;;;6.10;71.10;;;;;;5029733;28;20468;-83
2023/12/17 03:43:06;;;;;;;6.68;4.82;;;6.10;71.10;;;;;;5033531;28;20036;-84
2023/12/17 03:45:33;;;;;;;5.53;4.20;;;6.10;71.10;;;;;;5033445;28;20112;-83
2023/12/17 03:47:59;;;;;;;6.95;4.75;;;6.10;71.70;;;;;;5015636;28;20033;-84
2023/12/17 03:50:26;;;;;;;5.72;4.43;;;6.00;71.10;;;;;;5015942;28;20036;-84
2023/12/17 03:52:52;;;;;;;6.22;4.40;;;6.00;71.20;;;;;;5033417;28;20051;-84
2023/12/17 03:55:19;;;;;;;7.50;5.47;;;6.00;71.20;;;;;;5015194;28;20050;-83
2023/12/17 03:57:47;;;;;;;6.80;4.68;;;6.00;71.30;;;;;;5012248;28;20042;-84
2023/12/17 04:00:13;;;;;;;6.20;4.65;;;6.00;71.30;;;;;;5012803;28;20030;-84
2023/12/17 04:02:39;;;;;;;7.15;5.07;;;6.00;71.30;;;;;;5014431;28;20034;-84
2023/12/17 04:05:06;;;;;;;6.07;4.30;;;6.00;71.30;;;;;;5032053;28;20080;-84
2023/12/17 04:07:32;;;;;;;5.97;4.82;;;6.00;71.30;;;;;;5030046;28;20419;-83
2023/12/17 04:09:58;;;;;;;6.93;5.32;;;6.00;71.30;;;;;;5029562;28;20021;-84
2023/12/17 04:12:24;;;;;;;5.82;4.38;;;6.10;71.40;;;;;;5032868;28;20459;-85
2023/12/17 04:14:49;;;;;;;6.85;4.63;;;6.00;71.90;;;;;;5036428;28;20045;-83
2023/12/17 04:17:15;;;;;;;5.82;4.70;;;6.10;71.30;;;;;;5037099;28;20123;-85
2023/12/17 04:19:41;;;;;;;6.70;4.95;;;6.10;71.30;;;;;;5037111;28;20037;-84
2023/12/17 04:22:07;;;;;;;7.32;5.07;;;6.10;71.40;;;;;;5029167;28;20029;-83
2023/12/17 04:24:32;;;;;;;6.75;4.93;;;6.10;71.30;;;;;;5045509;28;20037;-84
2023/12/17 04:26:58;;;;;;;7.55;4.80;;;6.10;71.30;;;;;;5042585;28;20037;-85
2023/12/17 04:29:24;;;;;;;7.82;4.90;;;6.00;71.20;;;;;;5039866;28;20029;-84
2023/12/17 04:31:50;;;;;;;6.22;4.88;;;6.10;71.20;;;;;;5041787;28;20033;-83
2023/12/17 04:34:16;;;;;;;6.70;5.05;;;6.10;71.30;;;;;;5020250;28;20030;-84
2023/12/17 04:36:42;;;;;;;6.35;4.63;;;6.10;71.30;;;;;;5019488;28;20041;-83
2023/12/17 04:39:12;;;;;;;8.15;4.85;;;6.10;71.30;;;;;;5036814;28;20025;-84
2023/12/17 04:41:39;;;;;;;7.30;5.00;;;6.10;71.30;;;;;;5036156;28;20055;-83
2023/12/17 04:44:05;;;;;;;7.47;4.95;;;6.10;71.30;;;;;;5017018;28;20076;-84
2023/12/17 04:46:31;;;;;;;7.00;5.30;;;6.10;71.40;;;;;;5017471;28;20368;-83
2023/12/17 04:48:57;;;;;;;7.75;5.20;;;6.10;71.30;;;;;;5035671;28;20025;-84
2023/12/17 04:51:23;;;;;;;7.22;4.90;;;6.10;71.30;;;;;;5036561;28;20025;-84
2023/12/17 04:53:53;;;;;;;6.10;4.60;;;6.10;71.40;;;;;;5035101;28;20042;-83
2023/12/17 04:56:21;;;;;;;6.68;4.70;;;6.10;71.30;;;;;;5036253;28;20037;-83
2023/12/17 04:58:47;;;;;;;6.57;4.80;;;6.10;71.30;;;;;;5035164;28;20030;-84
2023/12/17 05:01:12;;;;;;;7.00;5.03;;;6.10;71.30;;;;;;5035594;28;20033;-83
2023/12/17 05:03:38;;;;;;;8.00;5.40;;;6.10;71.20;;;;;;5036649;28;20037;-83
2023/12/17 05:06:05;;;;;;;7.10;5.18;;;6.10;71.20;;;;;;5017638;28;20040;-84
2023/12/17 05:08:30;;;;;;;7.40;4.95;;;6.10;71.30;;;;;;5017674;28;20112;-84
2023/12/17 05:10:56;;;;;;;8.13;5.45;;;6.10;71.30;;;;;;5040418;28;20053;-84
2023/12/17 05:13:22;;;;;;;6.65;5.22;;;6.10;71.30;;;;;;5042487;28;20372;-85
2023/12/17 05:15:48;;;;;;;7.60;5.45;;;6.10;71.30;;;;;;5037933;28;20456;-84
2023/12/17 05:18:14;;;;;;;6.88;5.07;;;6.10;71.30;;;;;;5017513;28;20034;-84
2023/12/17 05:20:40;;;;;;;7.53;5.38;;;6.10;71.30;;;;;;5035836;28;20053;-84
2023/12/17 05:23:10;;;;;;;8.82;5.72;;;6.10;71.40;;;;;;5035057;28;20360;-83
2023/12/17 05:25:35;;;;;;;7.65;5.20;;;6.10;71.90;;;;;;5034593;28;20068;-84
2023/12/17 05:28:01;;;;;;;8.13;5.43;;;6.10;71.30;;;;;;5035791;28;20052;-84
2023/12/17 05:30:27;;;;;;;7.63;5.38;;;6.10;71.30;;;;;;5035606;28;20061;-84
2023/12/17 05:32:53;;;;;;;7.55;5.55;;;6.10;71.30;;;;;;5015961;28;20026;-85
2023/12/17 05:35:18;;;;;;;8.20;5.50;;;6.10;71.30;;;;;;5035062;28;20030;-84
2023/12/17 05:37:44;;;;;;;7.55;5.18;;;6.10;71.40;;;;;;5035384;28;20033;-83
2023/12/17 05:40:10;;;;;;;8.75;5.85;;;6.10;71.40;;;;;;5035614;28;20164;-85
2023/12/17 05:42:36;;;;;;;6.68;5.18;;;6.10;71.40;;;;;;5017254;28;20025;-85
2023/12/17 05:45:02;;;;;;;7.13;5.35;;;6.10;71.40;;;;;;5035394;28;20459;-83
2023/12/17 05:47:30;;;;;;;8.13;5.10;;;6.10;71.40;;;;;;5017536;28;20029;-85
2023/12/17 05:49:56;;;;;;;7.75;5.28;;;6.10;71.40;;;;;;5035154;28;20383;-83
2023/12/17 05:52:21;;;;;;;7.80;5.22;;;6.10;71.40;;;;;;5035315;28;20388;-86
2023/12/17 05:54:47;;;;;;;7.68;5.13;;;6.10;71.40;;;;;;5017066;28;20054;-83
2023/12/17 05:57:13;;;;;;;7.05;5.25;;;6.10;71.40;;;;;;5034825;28;20037;-85
2023/12/17 05:59:39;;;;;;;7.75;5.55;;;6.10;71.90;;;;;;5018725;28;20030;-84
2023/12/17 06:02:06;;;;;;;5.75;4.32;;;6.20;71.40;;;;;;5017360;28;20075;-84
2023/12/17 06:04:32;;;;;;;8.23;5.68;;;6.20;71.40;;;;;;5035119;28;20036;-85
2023/12/17 06:06:58;;;;;;;6.85;4.95;;;6.10;71.40;;;;;;5017466;28;20035;-85
2023/12/17 06:09:25;;;;;;;7.45;5.03;;;6.20;71.40;;;;;;5041337;28;20105;-86
2023/12/17 06:11:50;;;;;;;8.02;5.47;;;6.20;71.40;;;;;;5023002;28;20053;-84
2023/12/17 06:14:17;;;;;;;8.65;5.75;;;6.20;71.40;;;;;;5042066;28;20021;-83
2023/12/17 06:16:44;;;;;;;6.90;4.85;;;6.20;71.40;;;;;;5040197;28;20029;-85
2023/12/17 06:19:11;;;;;;;7.38;5.30;;;6.20;71.40;;;;;;5025980;28;20037;-85
2023/12/17 06:21:36;;;;;;;8.35;5.70;;;6.20;71.40;;;;;;5012352;28;20032;-85
2023/12/17 06:24:03;;;;;;;6.95;5.07;;;6.20;71.40;;;;;;5003926;28;20053;-84
2023/12/17 06:26:29;;;;;;;7.13;4.97;;;6.20;71.40;;;;;;5035969;28;20033;-85
2023/12/17 06:28:55;;;;;;;8.18;5.45;;;6.20;71.40;;;;;;5034988;28;20116;-84
2023/12/17 06:31:22;;;;;;;7.50;4.90;;;6.30;71.40;;;;;;5033713;28;20502;-86
2023/12/17 06:33:48;;;;;;;8.70;5.78;;;6.30;71.40;;;;;;5034311;28;20029;-84
2023/12/17 06:36:14;;;;;;;7.93;5.20;;;6.30;71.40;;;;;;5016687;28;20041;-85
2023/12/17 06:38:40;;;;;;;7.10;5.35;;;6.30;71.30;;;;;;5035154;28;20032;-84
2023/12/17 06:41:07;;;;;;;6.53;4.80;;;6.30;71.30;;;;;;5036002;28;20036;-85
2023/12/17 06:43:33;;;;;;;8.30;4.88;;;6.30;71.30;;;;;;5029476;28;20048;-85
2023/12/17 06:45:59;;;;;;;6.72;4.97;;;6.30;71.30;;;;;;5034976;28;20456;-84
2023/12/17 06:48:25;;;;;;;7.18;5.22;;;6.30;71.20;;;;;;5034468;28;20087;-85
2023/12/17 06:50:50;;;;;;;5.97;4.53;;;6.40;71.30;;;;;;5016687;28;20036;-85
2023/12/17 06:53:17;;;;;;;7.72;5.10;;;6.40;71.30;;;;;;5016242;28;20021;-85
2023/12/17 06:55:46;;;;;;;6.07;4.88;;;6.40;71.20;;;;;;5035161;28;20124;-85
2023/12/17 06:58:12;;;;;;;7.10;5.10;;;6.40;71.20;;;;;;5032908;28;20475;-85
2023/12/17 07:00:38;;;;;;;6.32;4.75;;;6.40;71.20;;;;;;5033888;28;20432;-84
2023/12/17 07:03:04;;;;;;;6.45;4.75;;;6.40;71.10;;;;;;5032781;28;20073;-85
2023/12/17 07:05:30;;;;;;;7.07;4.68;;;6.50;71.10;;;;;;5034656;28;20471;-85
2023/12/17 07:07:56;;;;;;;7.38;5.00;;;6.40;71.00;;;;;;5016423;28;20025;-86
2023/12/17 07:10:21;;;;;;;7.25;4.88;;;6.50;71.10;;;;;;5034718;28;20081;-85
2023/12/17 07:12:47;;;;;;;7.97;5.00;;;6.50;71.10;;;;;;5034105;28;20455;-85
2023/12/17 07:15:13;;;;;;;6.55;4.70;;;6.50;71.10;;;;;;5016213;28;20103;-85
2023/12/17 07:17:39;;;;;;;6.47;4.75;;;6.50;71.10;;;;;;5033524;28;20539;-85
2023/12/17 07:20:08;;;;;;;7.25;4.68;;;6.50;71.10;;;;;;5016010;28;20089;-85
2023/12/17 07:22:34;;;;;;;8.15;5.50;;;6.50;71.10;;;;;;4999923;28;20022;-83
2023/12/17 07:25:00;;;;;;;5.88;4.32;;;6.50;71.10;;;;;;5033120;28;20036;-85
2023/12/17 07:27:25;;;;;;;7.00;4.93;;;6.50;71.10;;;;;;5038427;28;20044;-85
2023/12/17 07:29:51;;;;;;;6.55;4.63;;;6.50;71.00;;;;;;5025228;28;20033;-86
2023/12/17 07:32:17;;;;;;;7.25;5.22;;;6.50;71.00;;;;;;5021430;28;20032;-84
2023/12/17 07:34:43;;;;;;;7.07;4.80;;;6.50;71.00;;;;;;5033323;28;20025;-86
2023/12/17 07:37:08;;;;;;;6.45;4.65;;;6.50;71.00;;;;;;5014645;28;20041;-87
2023/12/17 07:39:34;;;;;;;6.63;4.88;;;6.60;71.10;;;;;;5015997;28;20029;-85
2023/12/17 07:42:00;;;;;;;6.78;5.15;;;6.60;71.20;;;;;;5015197;28;20379;-84
2023/12/17 07:44:27;;;;;;;6.78;4.60;;;6.60;71.10;;;;;;5033674;28;20045;-85
2023/12/17 07:46:53;;;;;;;5.80;4.45;;;6.70;71.10;;;;;;5032375;28;20108;-86
2023/12/17 07:49:19;;;;;;;6.90;4.57;;;6.70;71.00;;;;;;5018587;28;20040;-84
2023/12/17 07:51:45;;;;;;;5.90;4.47;;;6.70;71.00;;;;;;5019307;28;20427;-85
2023/12/17 07:54:11;;;;;;;5.97;4.25;;;6.70;70.80;;;;;;5020718;28;20213;-85
2023/12/17 07:56:36;;;;;;;6.00;4.78;;;6.80;70.80;;;;;;5044514;28;20090;-85
2023/12/17 07:59:02;;;;;;;7.25;5.10;;;6.80;70.80;;;;;;5043371;28;20041;-85
2023/12/17 08:01:29;;;;;;;6.28;4.60;;;6.80;70.80;;;;;;5045586;28;20025;-85
2023/12/17 08:03:55;;;;;;;6.78;4.60;;;6.80;70.80;;;;;;5040867;28;20029;-86
2023/12/17 08:06:21;;;;;;;7.90;4.50;;;6.80;70.80;;;;;;5031894;28;20056;-88
2023/12/17 08:08:47;;;;;;;6.82;5.00;;;6.80;71.30;;;;;;5041580;28;20026;-84
2023/12/17 08:11:13;;;;;;;7.28;4.93;;;6.80;70.90;;;;;;5021878;28;20026;-86
2023/12/17 08:13:39;;;;;;;5.65;4.78;;;6.80;71.00;;;;;;5037922;28;20067;-86
2023/12/17 08:16:05;;;;;;;7.60;5.20;;;6.80;70.90;;;;;;5037739;28;20055;-86
2023/12/17 08:18:31;;;;;;;7.40;5.25;;;6.80;70.80;;;;;;5037826;28;20459;-86
2023/12/17 08:20:57;;;;;;;8.77;5.63;;;6.80;70.90;;;;;;5018731;28;20032;-87
2023/12/17 08:23:25;;;;;;;7.63;5.50;;;6.80;71.00;;;;;;5036813;28;20026;-86
2023/12/17 08:25:51;;;;;;;6.43;4.55;;;6.80;71.00;;;;;;5019164;28;20029;-85
2023/12/17 08:28:19;;;;;;;6.70;4.95;;;6.80;71.00;;;;;;5036309;28;20024;-81
2023/12/17 08:30:45;;;;;;;8.07;5.10;;;6.80;71.00;;;;;;5036641;28;20060;-86
2023/12/17 08:33:14;;;;;;;7.40;5.30;;;6.80;71.00;;;;;;5018393;28;20448;-85
2023/12/17 08:35:41;;;;;;;7.13;5.47;;;6.80;71.00;;;;;;5036086;28;20357;-90
2023/12/17 08:38:07;;;;;;;7.78;5.30;;;6.70;71.00;;;;;;5036448;28;20041;-81
2023/12/17 08:40:33;;;;;;;6.95;5.40;;;6.70;71.10;;;;;;5036575;28;20025;-89
2023/12/17 08:43:04;;;;;;;6.93;5.40;;;6.70;71.10;;;;;;5022323;28;20028;-82
2023/12/17 08:45:30;;;;;;;8.13;5.28;;;6.70;71.10;;;;;;5037872;28;20459;-77
2023/12/17 08:47:56;;;;;;;7.47;5.55;;;6.70;71.20;;;;;;5036924;28;20072;-82
2023/12/17 08:50:22;;;;;;;6.70;4.85;;;6.70;71.30;;;;;;5035968;28;20038;-79
2023/12/17 08:52:48;;;;;;;7.68;5.30;;;6.70;71.30;;;;;;5037110;28;20036;-81
2023/12/17 08:55:14;;;;;;;7.00;5.20;;;6.70;71.30;;;;;;5035931;28;20053;-79
2023/12/17 08:57:40;;;;;;;6.75;4.85;;;6.70;71.40;;;;;;5035955;28;20057;-77
2023/12/17 09:00:06;;;;;;;7.68;5.38;;;6.80;71.40;;;;;;5016912;28;20025;-77
2023/12/17 09:02:34;;;;;;;7.35;4.45;;;6.80;71.50;;;;;;5035692;28;20022;-78
2023/12/17 09:05:00;;;;;;;6.13;4.90;;;6.80;71.50;;;;;;5035061;28;20519;-80
2023/12/17 09:07:26;;;;;;;7.05;4.70;;;6.80;71.50;;;;;;5036195;28;20032;-81
2023/12/17 09:09:52;;;;;;;7.65;5.07;;;6.90;71.50;;;;;;5035820;28;20448;-86
2023/12/17 09:12:18;;;;;;;7.03;5.00;;;6.80;71.40;;;;;;5036799;28;20025;-86
2023/12/17 09:14:44;;;;;;;7.15;5.30;;;6.80;71.40;;;;;;5036681;28;20037;-87
2023/12/17 09:17:09;;;;;;;6.55;5.00;;;6.80;71.40;;;;;;5017958;28;20041;-85
2023/12/17 09:19:35;;;;;;;7.10;5.57;;;6.80;71.50;;;;;;5018130;28;20036;-83
2023/12/17 09:22:01;;;;;;;6.55;4.75;;;6.80;71.50;;;;;;5035314;28;20113;-82
2023/12/17 09:24:28;;;;;;;8.32;5.60;;;6.80;71.60;;;;;;5035221;28;20028;-84
2023/12/17 09:26:54;;;;;;;7.45;5.53;;;6.80;71.60;;;;;;5017890;28;20029;-83
2023/12/17 09:29:20;;;;;;;6.45;4.75;;;6.80;71.70;;;;;;5034730;28;20104;-80
2023/12/17 09:31:46;;;;;;;6.97;5.00;;;6.80;71.70;;;;;;5016618;28;20037;-80
2023/12/17 09:34:14;;;;;;;6.45;4.65;;;6.80;71.80;;;;;;5035256;28;20013;-81
2023/12/17 09:36:41;;;;;;;5.97;4.93;;;6.80;71.90;;;;;;5035436;28;20379;-80
2023/12/17 09:39:07;;;;;;;7.07;5.05;;;6.80;71.80;;;;;;5037258;28;20037;-90
2023/12/17 09:41:33;;;;;;;6.55;4.50;;;6.80;71.90;;;;;;5046884;28;20029;-85
2023/12/17 09:43:59;;;;;;;7.78;5.18;;;6.80;71.90;;;;;;5047413;28;20036;-85
2023/12/17 09:46:25;;;;;;;7.30;4.70;;;6.80;71.90;;;;;;5027875;28;20029;-82
2023/12/17 09:48:51;;;;;;;6.80;4.97;;;6.80;71.90;;;;;;5044437;28;20089;-82
2023/12/17 09:51:18;;;;;;;6.20;4.90;;;6.80;71.90;;;;;;5023252;28;20071;-83
2023/12/17 09:53:44;;;;;;;7.25;5.10;;;6.90;71.90;;;;;;5038317;28;20056;-81
2023/12/17 09:56:13;;;;;;;6.20;4.70;;;6.90;71.90;;;;;;5018651;28;20044;-85
2023/12/17 09:58:40;;;;;;;6.32;4.72;;;6.90;71.90;;;;;;5036340;28;20119;-83
2023/12/17 10:01:06;;;;;;;6.25;4.63;;;6.90;71.90;;;;;;5035036;28;20088;-83
2023/12/17 10:03:33;;;;;;;6.68;5.13;;;6.90;71.80;;;;;;5018333;28;20030;-84
2023/12/17 10:06:01;;;;;;;6.97;5.10;;;7.00;71.90;;;;;;5017826;28;20030;-85
2023/12/17 10:08:27;;;;;;;6.15;4.13;;;7.00;71.90;;;;;;5017873;28;20057;-87
2023/12/17 10:10:53;;;;;;;6.05;4.72;;;7.00;71.80;;;;;;5017063;28;20049;-88
2023/12/17 10:13:21;;;;;;;7.32;5.07;;;6.90;71.70;;;;;;5016776;28;20025;-79
2023/12/17 10:15:51;;;;;;;5.88;4.40;;;6.90;71.80;;;;;;5016488;28;20053;-86
2023/12/17 10:18:17;;;;;;;9.10;4.60;;;6.90;71.80;;;;;;5017723;28;20037;-84
2023/12/17 10:20:45;;;;;;;6.93;4.85;;;6.90;71.90;;;;;;5034917;28;20112;-80
2023/12/17 10:23:11;;;;;;;6.43;4.55;;;6.90;71.80;;;;;;5020537;28;20379;-84
2023/12/17 10:25:37;;;;;;;6.35;4.80;;;6.90;71.80;;;;;;5036259;28;20035;-92
2023/12/17 10:28:02;;;;;;;7.38;4.63;;;6.90;71.90;;;;;;5036885;28;20025;-89
2023/12/17 10:30:31;;;;;;;5.85;4.22;;;6.90;72.30;;;;;;5036338;28;20065;-90
2023/12/17 10:32:59;;;;;;;5.70;3.92;;;6.90;72.80;;;;;;5034463;28;20036;-90
2023/12/17 10:35:25;;;;;;;5.70;4.28;;;6.90;72.80;;;;;;5034080;28;20394;-92
2023/12/17 10:37:57;;;;;;;5.20;4.25;;;6.90;72.70;;;;;;5034795;28;20060;-86
2023/12/17 10:40:25;;;;;;;5.70;4.20;;;6.90;72.70;;;;;;5015391;28;20053;-86
2023/12/17 10:42:53;;;;;;;5.53;4.25;;;6.90;72.60;;;;;;5017149;28;20048;-85
2023/12/17 10:45:21;;;;;;;4.72;3.78;;;6.90;72.60;;;;;;5037664;28;20017;-88
2023/12/17 10:47:57;;;;;;;6.05;4.35;;;6.90;72.60;;;;;;5018867;28;20387;-84
2023/12/17 10:50:24;;;;;;;5.90;4.03;;;6.90;73.20;;;;;;5035805;28;20029;-91
2023/12/17 10:52:50;;;;;;;4.65;4.00;;;6.90;72.60;;;;;;5017480;28;20033;-84
2023/12/17 10:55:18;;;;;;;5.28;4.20;;;6.90;72.60;;;;;;5033961;28;20084;-81
2023/12/17 10:57:52;;;;;;;4.97;4.03;;;6.90;72.60;;;;;;5013548;28;20444;-86
2023/12/17 11:00:23;;;;;;;4.90;3.85;;;6.90;72.60;;;;;;5034299;28;20022;-84
2023/12/17 11:02:51;;;;;;;6.07;4.18;;;6.90;72.60;;;;;;5016558;28;20036;-86
2023/12/17 11:05:17;;;;;;;4.90;4.03;;;7.00;72.60;;;;;;5015709;28;20092;-85
2023/12/17 11:07:43;;;;;;;5.82;4.00;;;6.90;72.50;;;;;;5023719;28;20037;-84
2023/12/17 11:10:15;;;;;;;5.07;3.67;;;7.00;72.50;;;;;;5016005;28;20033;-90
2023/12/17 11:12:42;;;;;;;3.75;3.33;;;7.00;72.80;;;;;;5030874;28;20021;-83
2023/12/17 11:15:08;;;;;;;5.30;4.10;;;7.00;73.00;;;;;;5013439;28;20387;-88
2023/12/17 11:17:34;;;;;;;5.13;3.80;;;7.00;72.90;;;;;;5012588;28;20048;-88
2023/12/17 11:20:01;;;;;;;5.40;3.75;;;7.00;72.90;;;;;;5011060;28;20026;-83
2023/12/17 11:22:28;;;;;;;5.00;3.30;;;7.00;72.80;;;;;;5011631;28;20056;-84
2023/12/17 11:24:56;;;;;;;4.20;3.63;;;7.00;72.80;;;;;;5039480;28;20017;-86
2023/12/17 11:27:23;;;;;;;5.75;3.50;;;7.00;72.80;;;;;;5032636;28;20077;-82
2023/12/17 11:29:53;;;;;;;4.03;3.25;;;7.00;72.70;;;;;;5036618;28;20029;-83
2023/12/17 11:32:20;;;;;;;4.45;3.20;;;6.90;72.70;;;;;;5034317;28;20079;-85
2023/12/17 11:34:49;;;;;;;4.43;3.40;;;6.90;72.70;;;;;;5036258;28;20125;-83
2023/12/17 11:37:19;;;;;;;4.10;3.35;;;6.90;72.80;;;;;;5036530;28;20041;-88
2023/12/17 11:39:52;;;;;;;4.60;3.67;;;7.00;72.80;;;;;;5017375;28;20060;-83
2023/12/17 11:42:19;;;;;;;5.93;3.25;;;6.90;72.70;;;;;;5017548;28;20427;-92
2023/12/17 11:44:50;;;;;;;4.18;3.20;;;7.00;72.70;;;;;;5033153;28;20083;-84
2023/12/17 11:47:17;;;;;;;4.07;3.20;;;6.90;72.60;;;;;;5015008;28;20042;-81
2023/12/17 11:49:43;;;;;;;3.83;3.00;;;6.90;72.60;;;;;;5036602;28;20017;-92
2023/12/17 11:52:11;;;;;;;3.67;2.95;;;6.90;72.60;;;;;;5033936;28;20028;-86
2023/12/17 11:54:37;;;;;;;3.60;3.30;;;6.90;72.60;;;;;;5033009;28;20045;-80
2023/12/17 11:57:03;;;;;;;3.63;3.03;;;6.90;72.60;;;;;;5029771;28;20108;-91
2023/12/17 11:59:35;;;;;;;3.58;2.95;;;6.90;72.60;;;;;;5015376;28;20026;-86
2023/12/17 12:02:02;;;;;;;4.43;3.28;;;7.00;72.60;;;;;;5044203;28;20025;-85
2023/12/17 12:04:40;;;;;;;3.90;2.90;;;6.90;73.10;;;;;;5033917;28;20028;-94
2023/12/17 12:07:06;;;;;;;4.00;3.30;;;7.00;72.60;;;;;;5018753;28;20025;-89
2023/12/17 12:09:32;;;;;;;3.38;3.03;;;7.00;72.60;;;;;;5032300;28;20030;-88
2023/12/17 12:11:57;;;;;;;4.15;2.95;;;7.00;72.60;;;;;;5032837;28;20096;-87
2023/12/17 12:14:23;;;;;;;3.65;3.03;;;6.90;72.50;;;;;;5030463;28;20029;-90
2023/12/17 12:16:49;;;;;;;2.90;2.70;;;6.90;72.60;;;;;;5031668;28;20426;-92
2023/12/17 12:19:15;;;;;;;4.00;3.50;;;6.90;72.60;;;;;;5035258;28;20085;-87
2023/12/17 12:21:40;;;;;;;4.10;3.25;;;6.90;72.60;;;;;;5012847;28;20026;-86
2023/12/17 12:24:10;;;;;;;3.95;2.90;;;6.90;72.60;;;;;;5031912;28;20482;-89
2023/12/17 12:26:37;;;;;;;3.35;2.90;;;7.00;73.90;;;;;;5030366;28;20034;-83
2023/12/17 12:29:06;;;;;;;4.10;3.40;;;7.00;74.70;;;;;;5032000;28;20032;-81
2023/12/17 12:31:32;;;;;;;3.53;3.05;;;7.10;74.10;;;;;;5031684;28;20021;-82
2023/12/17 12:34:00;;;;;;;3.58;3.10;;;7.10;73.90;;;;;;5014903;28;20379;-79
2023/12/17 12:36:40;;;;;;;4.13;3.20;;;7.10;73.70;;;;;;5035898;28;20085;-92
2023/12/17 12:39:07;;;;;;;4.43;3.33;;;7.10;73.60;;;;;;5017923;28;20080;-90
2023/12/17 12:41:33;;;;;;;4.45;3.20;;;7.10;73.60;;;;;;5036647;28;20033;-88
2023/12/17 12:44:01;;;;;;;4.28;3.28;;;7.10;73.50;;;;;;5037001;28;20105;-87
2023/12/17 12:46:27;;;;;;;4.38;3.20;;;7.00;73.40;;;;;;5018580;28;20033;-90
2023/12/17 12:48:57;;;;;;;3.85;3.17;;;7.10;73.50;;;;;;5035508;28;20514;-89
2023/12/17 12:51:24;;;;;;;4.13;3.17;;;7.10;73.50;;;;;;5035439;28;20512;-84
2023/12/17 12:53:51;;;;;;;4.40;3.70;;;7.10;73.40;;;;;;5014774;28;20452;-85